Teuge International Airport

EHTE · Gelderland, 荷兰

使用的METAR站距离机场71 km。
罗盘
风向 的 风向 170° Teuge International Airport 8/26
风: 10 kt, 3 beaufort

1 kt

10 kt
改变
0 ft 1.000 2.000 3.000 4.000 5.000
Cloud Cloud
FEW 2.100
Cloud Cloud Cloud Cloud
SCT 2.400
METAR EDLV 011020Z 17010KT 9999 FEW021 SCT024 09/03 Q1004

METAR Teuge International Airport - EHTE/TGE

Teuge International Airport是,荷兰中的中型机场。 该机场位于纬度52,24284和经度6,05039。 该机场有一条跑道: 8/26. 本场的ICAO机场代码为EHTE。 该机场的IATA代码为TGE。 机场在Langen FIR中。

该航空气象观测是针对Weeze Airport在2024年3月1日 11:20, 当地时间进行的。

机场观察

风向为170°,速度为10 kt。

可见度为10 km 或者更多。

有几云在2.100 ft的高度 和 疏云,零星散落的云朵在2.400 ft的高度。 没有观察到天花板。

温度为9 °C,阵风为5 °C。 露点为3 °C,相对湿度为66%。 海平面上的气压为1004 hPa (QNH)。

白天

今天,太阳从07:20升起,在18:15降落。 这适用于Teuge International Airport,世界夏令时可能有所不同。 当地时间与世界标准时间之间的时差为+1 小时。 当前,没有夏令时有效。

公司介绍

在这个机场,你可以找到飞行学校。 这个机场上的公司有Vliegles.nl, Vliegschool Special Air Services, E-Flight Academy 和 Flight School Teuge。

体会

在这个机场有飞行课程。 你可以在没有任何经验的情况下预订飞行课程。 在Teuge International Airport预订最多的飞行课程类型是Cessna flying lesson。 这些课程的价格从€ 159开始。 在这里阅读更多关于Cessna flying lesson的信息。你也可以在这个网站上进行预订。

跑道

Id 标题 侧风 逆风 侧风 %
8/26 086°-266° 10 kt 1 kt 99 %

逆风成分最大的方向会被突出显示,并用于横风计算。 这并不一定意味着这个方向在使用。

乌云

2.100 ft FEW 几云
2.400 ft SCT 疏云,零星散落的云朵

温度 & 天气

温度 9 °C
露点 3 °C
相对湿度 66%
风寒 5 °C
Kp-index 1 (0-9)

白天

日出
07:19
中午
12:47
日落
18:16 (6:45)

小工具

你想在你的网站上有一个关于Teuge International Airport的当前航空天气(METAR)的小部件吗?

显示HTML代码
?>